createdAt,value
2022-08-26T00:00:19.629Z,51.58
2022-08-26T00:01:29.098Z,51.51
2022-08-26T00:02:32.892Z,51.50
2022-08-26T00:03:35.821Z,52.32
2022-08-26T00:04:38.423Z,52.01
2022-08-26T00:05:40.601Z,52.66
2022-08-26T00:06:46.172Z,52.81
2022-08-26T00:07:48.534Z,52.87
2022-08-26T00:08:51.821Z,52.40
2022-08-26T00:09:54.362Z,52.54
2022-08-26T00:10:58.060Z,52.96
2022-08-26T00:12:01.866Z,53.21
2022-08-26T00:13:06.597Z,53.07
2022-08-26T00:14:09.820Z,53.35
2022-08-26T00:15:15.424Z,53.36
2022-08-26T00:16:17.200Z,53.15
2022-08-26T00:17:19.838Z,53.23
2022-08-26T00:18:23.284Z,53.09
2022-08-26T00:19:28.583Z,53.97
2022-08-26T00:20:32.761Z,53.78
2022-08-26T00:21:37.574Z,53.73
2022-08-26T00:22:41.167Z,54.30
2022-08-26T00:23:43.820Z,53.88
2022-08-26T00:24:47.821Z,54.70
2022-08-26T00:25:50.793Z,54.29
2022-08-26T00:26:52.389Z,54.56
2022-08-26T00:27:54.929Z,54.85
2022-08-26T00:28:59.073Z,55.30
2022-08-26T00:30:03.296Z,55.25
2022-08-26T00:31:05.377Z,55.56
2022-08-26T00:32:09.585Z,55.22
2022-08-26T00:33:13.155Z,55.66
2022-08-26T00:34:16.661Z,55.57
2022-08-26T00:35:21.464Z,55.42
2022-08-26T00:36:25.687Z,55.60
2022-08-26T00:37:31.970Z,56.17
2022-08-26T00:38:37.814Z,56.36
2022-08-26T00:39:39.663Z,56.45
2022-08-26T00:40:46.899Z,56.62
2022-08-26T00:41:49.000Z,56.77
2022-08-26T00:42:51.644Z,56.85
2022-08-26T00:43:53.331Z,57.55
2022-08-26T00:44:57.345Z,57.79
2022-08-26T00:46:07.348Z,58.01
2022-08-26T00:47:17.397Z,57.78
2022-08-26T00:48:22.603Z,57.94
2022-08-26T00:49:32.377Z,58.85
2022-08-26T00:50:38.424Z,58.67
2022-08-26T00:51:46.811Z,58.76
2022-08-26T00:52:49.091Z,59.43
2022-08-26T00:53:56.353Z,59.38
2022-08-26T00:55:02.458Z,59.32
2022-08-26T00:56:10.689Z,59.77
2022-08-26T00:57:20.054Z,59.96
2022-08-26T00:58:25.133Z,60.00
2022-08-26T00:59:29.102Z,60.65
2022-08-26T01:00:37.153Z,60.57
2022-08-26T01:01:42.621Z,60.41
2022-08-26T01:02:49.512Z,60.93
2022-08-26T01:03:51.205Z,61.08
2022-08-26T01:04:59.892Z,61.26
2022-08-26T01:06:03.601Z,61.78
2022-08-26T01:07:06.879Z,61.53
2022-08-26T01:08:09.190Z,62.14
2022-08-26T01:09:11.954Z,61.86
2022-08-26T01:10:17.503Z,62.50
2022-08-26T01:11:20.952Z,62.24
2022-08-26T01:12:24.921Z,62.66
2022-08-26T01:13:29.939Z,62.56
2022-08-26T01:14:34.966Z,62.96
2022-08-26T01:15:44.574Z,62.82
2022-08-26T01:16:47.432Z,62.86
2022-08-26T01:17:51.696Z,63.46
2022-08-26T01:19:01.285Z,63.57
2022-08-26T01:20:14.070Z,63.27
2022-08-26T01:21:22.891Z,63.62
2022-08-26T01:22:34.973Z,63.66
2022-08-26T01:23:42.167Z,63.61
2022-08-26T01:24:48.141Z,63.77
2022-08-26T01:25:55.830Z,63.88
2022-08-26T01:26:59.527Z,63.70
2022-08-26T01:28:06.567Z,64.30
2022-08-26T01:29:12.648Z,63.97
2022-08-26T01:30:15.665Z,64.20
2022-08-26T01:31:21.250Z,64.58
2022-08-26T01:32:24.687Z,64.84
2022-08-26T01:33:42.035Z,64.73
2022-08-26T01:34:48.034Z,64.61
2022-08-26T01:35:50.196Z,64.45
2022-08-26T01:36:59.655Z,64.83
2022-08-26T01:38:02.264Z,64.83
2022-08-26T01:39:07.342Z,64.64
2022-08-26T01:40:14.309Z,65.17
2022-08-26T01:41:27.236Z,64.85
2022-08-26T01:42:29.729Z,65.31
2022-08-26T01:43:34.775Z,65.20
2022-08-26T01:44:41.051Z,65.60
2022-08-26T01:45:45.101Z,65.36
2022-08-26T01:46:49.963Z,65.79
2022-08-26T01:47:57.376Z,66.04
2022-08-26T01:49:03.302Z,66.07
2022-08-26T01:50:15.795Z,66.27
2022-08-26T01:51:31.716Z,66.26
2022-08-26T01:52:39.082Z,66.03
2022-08-26T01:53:46.110Z,66.74
2022-08-26T01:54:51.152Z,66.39
2022-08-26T01:55:57.163Z,66.70
2022-08-26T01:56:59.589Z,66.77
2022-08-26T01:58:06.258Z,66.50
2022-08-26T01:59:14.319Z,66.62
2022-08-26T02:00:17.043Z,67.26
2022-08-26T02:01:20.810Z,67.01
2022-08-26T02:02:23.464Z,67.22
2022-08-26T02:03:28.832Z,67.42
2022-08-26T02:04:34.626Z,67.41
2022-08-26T02:05:40.345Z,67.59
2022-08-26T02:06:45.695Z,67.72
2022-08-26T02:07:50.657Z,67.89
2022-08-26T02:08:55.321Z,68.22
2022-08-26T02:09:59.359Z,68.10
2022-08-26T02:11:00.986Z,68.08
2022-08-26T02:12:03.863Z,68.26
2022-08-26T02:13:07.822Z,68.46
2022-08-26T02:14:16.052Z,68.45
2022-08-26T02:15:17.999Z,68.74
2022-08-26T02:16:29.609Z,68.96
2022-08-26T02:17:37.264Z,68.89
2022-08-26T02:18:44.547Z,68.90
2022-08-26T02:19:50.367Z,69.26
2022-08-26T02:20:55.047Z,69.06
2022-08-26T02:21:59.357Z,69.27
2022-08-26T02:23:02.590Z,69.27
2022-08-26T02:24:11.991Z,69.40
2022-08-26T02:25:22.832Z,69.32
2022-08-26T02:26:26.910Z,69.63
2022-08-26T02:27:33.438Z,69.86
2022-08-26T02:28:40.687Z,70.17
2022-08-26T02:29:46.390Z,70.08
2022-08-26T02:30:55.381Z,69.88
2022-08-26T02:31:57.432Z,70.11
2022-08-26T02:33:03.466Z,70.29
2022-08-26T02:34:11.294Z,70.41
2022-08-26T02:35:20.045Z,70.71
2022-08-26T02:36:24.944Z,70.51
2022-08-26T02:37:31.499Z,70.43
2022-08-26T02:38:34.123Z,70.95
2022-08-26T02:39:37.428Z,70.84
2022-08-26T02:40:43.781Z,70.58
2022-08-26T02:41:45.740Z,71.01
2022-08-26T02:42:48.430Z,71.28
2022-08-26T02:43:50.083Z,71.41
2022-08-26T02:44:52.746Z,71.30
2022-08-26T02:45:54.456Z,71.24
2022-08-26T02:46:57.094Z,71.43
2022-08-26T02:47:59.688Z,71.59
2022-08-26T02:49:02.603Z,71.82
2022-08-26T02:50:05.129Z,71.65
2022-08-26T02:51:07.841Z,71.65
2022-08-26T02:52:09.663Z,71.78
2022-08-26T02:53:13.184Z,72.04
2022-08-26T02:54:15.493Z,71.97
2022-08-26T02:55:18.626Z,71.90
2022-08-26T02:56:21.716Z,71.96
2022-08-26T02:57:24.448Z,71.95
2022-08-26T02:58:26.221Z,72.23
2022-08-26T02:59:29.408Z,72.00
2022-08-26T03:00:32.470Z,71.95
2022-08-26T03:01:37.153Z,72.16
2022-08-26T03:02:38.816Z,72.38
2022-08-26T03:03:41.492Z,71.99
2022-08-26T03:04:58.156Z,72.13
2022-08-26T03:06:04.482Z,72.05
2022-08-26T03:07:06.936Z,72.41
2022-08-26T03:08:11.633Z,72.44
2022-08-26T03:09:14.022Z,72.34
2022-08-26T03:10:22.037Z,72.27
2022-08-26T03:11:27.626Z,72.40
2022-08-26T03:12:33.597Z,72.64
2022-08-26T03:13:36.686Z,72.66
2022-08-26T03:14:39.359Z,72.67
2022-08-26T03:15:41.918Z,72.54
2022-08-26T03:16:45.393Z,72.76
2022-08-26T03:17:50.496Z,72.67
2022-08-26T03:18:53.763Z,72.62
2022-08-26T03:19:57.222Z,72.87
2022-08-26T03:21:00.400Z,72.64
2022-08-26T03:22:03.889Z,72.63
2022-08-26T03:23:06.468Z,72.80
2022-08-26T03:24:10.485Z,73.06
2022-08-26T03:25:15.515Z,73.05
2022-08-26T03:26:17.283Z,73.03
2022-08-26T03:27:21.196Z,72.93
2022-08-26T03:28:22.897Z,72.96
2022-08-26T03:29:49.540Z,73.23
2022-08-26T03:30:53.398Z,72.85
2022-08-26T03:31:55.327Z,73.10
2022-08-26T03:32:58.065Z,72.89
2022-08-26T03:34:00.278Z,72.94
2022-08-26T03:35:02.916Z,73.06
2022-08-26T03:36:07.661Z,72.93
2022-08-26T03:37:10.240Z,72.88
2022-08-26T03:38:12.923Z,73.39
2022-08-26T03:39:14.626Z,73.21
2022-08-26T03:40:20.402Z,73.71
2022-08-26T03:41:22.238Z,73.32
2022-08-26T03:42:26.610Z,73.41
2022-08-26T03:43:28.239Z,73.48
2022-08-26T03:44:31.428Z,73.31
2022-08-26T03:45:34.557Z,73.35
2022-08-26T03:46:39.236Z,73.57
2022-08-26T03:47:41.084Z,73.34
2022-08-26T03:48:44.350Z,73.60
2022-08-26T03:49:46.382Z,73.50
2022-08-26T03:50:49.021Z,73.48
2022-08-26T03:51:53.119Z,73.44
2022-08-26T03:52:56.693Z,73.65
2022-08-26T03:54:00.516Z,73.67
2022-08-26T03:55:05.138Z,73.44
2022-08-26T03:56:08.127Z,73.48
2022-08-26T03:57:09.809Z,73.60
2022-08-26T03:58:13.712Z,73.58
2022-08-26T03:59:15.351Z,73.58
2022-08-26T04:00:20.119Z,73.53
2022-08-26T04:01:21.843Z,73.53
2022-08-26T04:02:24.853Z,73.50
2022-08-26T04:03:46.641Z,73.52
2022-08-26T04:04:49.181Z,73.47
2022-08-26T04:05:51.685Z,73.64
2022-08-26T04:06:59.207Z,73.84
2022-08-26T04:08:00.869Z,73.93
2022-08-26T04:09:09.395Z,73.76
2022-08-26T04:10:12.505Z,73.80
2022-08-26T04:11:18.673Z,73.77
2022-08-26T04:12:20.925Z,73.63
2022-08-26T04:13:24.955Z,73.60
2022-08-26T04:14:27.776Z,73.77
2022-08-26T04:15:30.478Z,73.67
2022-08-26T04:16:33.413Z,73.80
2022-08-26T04:17:36.235Z,73.71
2022-08-26T04:18:38.186Z,73.75
2022-08-26T04:19:49.385Z,73.84
2022-08-26T04:20:51.021Z,74.00
2022-08-26T04:21:54.880Z,73.81
2022-08-26T04:22:57.584Z,73.70
2022-08-26T04:23:59.283Z,73.72
2022-08-26T04:25:06.932Z,73.89
2022-08-26T04:26:08.635Z,73.72
2022-08-26T04:27:12.053Z,73.77
2022-08-26T04:28:14.713Z,73.42
2022-08-26T04:29:23.991Z,73.81
2022-08-26T04:30:25.971Z,73.95
2022-08-26T04:31:28.763Z,73.63
2022-08-26T04:32:32.602Z,73.81
2022-08-26T04:33:35.420Z,73.46
2022-08-26T04:34:44.871Z,73.73
2022-08-26T04:35:47.590Z,73.67
2022-08-26T04:36:50.162Z,73.54
2022-08-26T04:37:52.813Z,73.75
2022-08-26T04:38:54.492Z,73.78
2022-08-26T04:39:57.156Z,73.60
2022-08-26T04:40:58.767Z,73.55
2022-08-26T04:42:01.868Z,73.57
2022-08-26T04:43:04.004Z,73.64
2022-08-26T04:44:07.651Z,73.53
2022-08-26T04:45:12.490Z,73.89
2022-08-26T04:46:19.469Z,73.99
2022-08-26T04:47:22.149Z,73.87
2022-08-26T04:48:23.811Z,73.78
2022-08-26T04:49:28.529Z,73.84
2022-08-26T04:50:37.912Z,73.52
2022-08-26T04:51:41.022Z,73.74
2022-08-26T04:52:45.773Z,73.87
2022-08-26T04:53:48.756Z,73.98
2022-08-26T04:54:52.309Z,73.76
2022-08-26T04:55:55.608Z,74.06
2022-08-26T04:56:57.454Z,73.81
2022-08-26T04:58:00.603Z,73.68
2022-08-26T04:59:04.394Z,73.76
2022-08-26T05:00:13.218Z,73.80
2022-08-26T05:01:15.039Z,74.02
2022-08-26T05:02:18.070Z,73.93
2022-08-26T05:03:19.795Z,73.76
2022-08-26T05:04:22.529Z,74.18
2022-08-26T05:05:24.152Z,74.14
2022-08-26T05:06:27.949Z,73.57
2022-08-26T05:07:31.136Z,73.90
2022-08-26T05:08:33.573Z,73.73
2022-08-26T05:09:36.338Z,74.05
2022-08-26T05:10:41.120Z,74.07
2022-08-26T05:11:43.761Z,73.55
2022-08-26T05:12:50.391Z,73.55
2022-08-26T05:13:53.035Z,73.61
2022-08-26T05:14:55.043Z,73.53
2022-08-26T05:16:04.419Z,73.72
2022-08-26T05:17:07.067Z,73.48
2022-08-26T05:18:11.439Z,73.89
2022-08-26T05:19:14.544Z,73.72
2022-08-26T05:20:23.914Z,73.52
2022-08-26T05:21:29.397Z,73.58
2022-08-26T05:22:32.076Z,73.41
2022-08-26T05:23:35.900Z,73.63
2022-08-26T05:24:38.593Z,73.42
2022-08-26T05:25:43.127Z,73.39
2022-08-26T05:26:46.896Z,73.44
2022-08-26T05:27:48.488Z,73.36
2022-08-26T05:28:51.296Z,73.65
2022-08-26T05:29:57.205Z,73.60
2022-08-26T05:31:01.205Z,73.42
2022-08-26T05:32:04.648Z,73.28
2022-08-26T05:33:07.515Z,73.14
2022-08-26T05:34:10.406Z,73.06
2022-08-26T05:35:12.244Z,73.07
2022-08-26T05:36:17.846Z,72.99
2022-08-26T05:37:19.529Z,72.89
2022-08-26T05:38:23.301Z,73.11
2022-08-26T05:39:26.601Z,73.13
2022-08-26T05:40:32.047Z,73.21
2022-08-26T05:41:38.289Z,73.11
2022-08-26T05:42:41.203Z,73.22
2022-08-26T05:43:42.977Z,72.84
2022-08-26T05:44:55.613Z,73.17
2022-08-26T05:46:07.970Z,73.32
2022-08-26T05:47:10.684Z,72.88
2022-08-26T05:48:13.851Z,72.64
2022-08-26T05:49:29.430Z,72.92
2022-08-26T05:50:31.129Z,72.98
2022-08-26T05:51:36.118Z,72.95
2022-08-26T05:52:38.105Z,72.48
2022-08-26T05:53:43.750Z,72.97
2022-08-26T05:54:54.406Z,72.70
2022-08-26T05:55:57.116Z,72.44
2022-08-26T05:57:00.824Z,72.34
2022-08-26T05:58:02.825Z,72.79
2022-08-26T05:59:06.030Z,72.64
2022-08-26T06:00:16.194Z,72.42
2022-08-26T06:01:24.119Z,72.54
2022-08-26T06:02:26.082Z,72.58
2022-08-26T06:03:29.192Z,72.38
2022-08-26T06:04:31.675Z,72.40
2022-08-26T06:05:39.149Z,72.37
2022-08-26T06:06:43.193Z,72.55
2022-08-26T06:08:05.134Z,72.37
2022-08-26T06:09:11.185Z,72.15
2022-08-26T06:10:32.573Z,72.55
2022-08-26T06:11:35.601Z,72.48
2022-08-26T06:12:38.152Z,72.48
2022-08-26T06:13:41.558Z,72.33
2022-08-26T06:14:43.769Z,72.47
2022-08-26T06:15:49.152Z,72.44
2022-08-26T06:16:53.561Z,72.06
2022-08-26T06:17:56.149Z,72.25
2022-08-26T06:18:57.790Z,72.00
2022-08-26T06:20:00.715Z,71.87
2022-08-26T06:21:14.789Z,71.78
2022-08-26T06:22:35.876Z,71.81
2022-08-26T06:23:56.560Z,71.91
2022-08-26T06:25:19.268Z,71.41
2022-08-26T06:26:21.984Z,71.41
2022-08-26T06:27:27.283Z,71.36
2022-08-26T06:28:33.992Z,71.48
2022-08-26T06:29:37.578Z,71.51
2022-08-26T06:30:40.792Z,71.45
2022-08-26T06:31:43.738Z,71.20
2022-08-26T06:32:46.886Z,70.90
2022-08-26T06:33:50.399Z,71.42
2022-08-26T06:34:52.268Z,71.04
2022-08-26T06:35:56.677Z,71.20
2022-08-26T06:37:02.724Z,70.93
2022-08-26T06:38:06.549Z,71.09
2022-08-26T06:39:11.400Z,70.90
2022-08-26T06:40:13.484Z,70.91
2022-08-26T06:41:16.967Z,71.06
2022-08-26T06:42:19.175Z,71.16
2022-08-26T06:43:25.500Z,70.99
2022-08-26T06:44:28.886Z,71.06
2022-08-26T06:45:30.674Z,70.75
2022-08-26T06:46:34.623Z,70.81
2022-08-26T06:47:36.508Z,71.01
2022-08-26T06:48:41.365Z,71.18
2022-08-26T06:49:44.317Z,70.87
2022-08-26T06:50:47.705Z,70.78
2022-08-26T06:51:51.757Z,71.03
2022-08-26T06:52:54.370Z,70.98
2022-08-26T06:54:00.134Z,70.63
2022-08-26T06:55:03.172Z,70.48
2022-08-26T06:56:07.653Z,70.43
2022-08-26T06:57:12.145Z,70.22
2022-08-26T06:58:14.023Z,70.02
2022-08-26T06:59:16.686Z,69.93
2022-08-26T07:00:20.691Z,70.33
2022-08-26T07:01:25.645Z,70.33
2022-08-26T07:02:28.622Z,69.99
2022-08-26T07:03:31.745Z,69.88
2022-08-26T07:04:44.087Z,69.86
2022-08-26T07:05:50.403Z,69.71
2022-08-26T07:06:56.644Z,69.99
2022-08-26T07:07:59.481Z,69.82
2022-08-26T07:09:04.996Z,69.82
2022-08-26T07:10:08.447Z,69.77
2022-08-26T07:11:12.624Z,69.87
2022-08-26T07:12:14.282Z,69.57
2022-08-26T07:13:16.904Z,70.18
2022-08-26T07:14:34.931Z,69.93
2022-08-26T07:15:40.905Z,69.92
2022-08-26T07:16:43.888Z,69.84
2022-08-26T07:17:45.704Z,70.11
2022-08-26T07:18:48.865Z,69.93
2022-08-26T07:19:53.983Z,69.85
2022-08-26T07:20:55.683Z,70.23
2022-08-26T07:21:59.304Z,70.35
2022-08-26T07:23:00.949Z,69.96
2022-08-26T07:24:05.052Z,69.76
2022-08-26T07:25:08.677Z,69.82
2022-08-26T07:26:16.104Z,69.64
2022-08-26T07:27:18.881Z,69.46
2022-08-26T07:28:22.693Z,69.93
2022-08-26T07:29:25.412Z,69.42
2022-08-26T07:30:28.229Z,69.59
2022-08-26T07:31:37.364Z,69.96
2022-08-26T07:32:42.356Z,69.89
2022-08-26T07:33:44.881Z,69.80
2022-08-26T07:34:47.578Z,69.41
2022-08-26T07:35:51.622Z,69.36
2022-08-26T07:36:55.284Z,69.25
2022-08-26T07:37:58.111Z,69.01
2022-08-26T07:38:59.789Z,69.03
2022-08-26T07:40:02.527Z,69.04
2022-08-26T07:41:04.879Z,68.97
2022-08-26T07:42:08.574Z,69.18
2022-08-26T07:43:10.391Z,68.59
2022-08-26T07:44:12.971Z,68.95
2022-08-26T07:45:15.628Z,68.46
2022-08-26T07:46:18.567Z,68.60
2022-08-26T07:47:29.949Z,68.53
2022-08-26T07:48:32.327Z,68.96
2022-08-26T07:49:37.976Z,68.69
2022-08-26T07:50:50.266Z,68.35
2022-08-26T07:51:55.195Z,68.37
2022-08-26T07:52:57.959Z,68.79
2022-08-26T07:53:59.798Z,68.59
2022-08-26T07:55:04.396Z,69.02
2022-08-26T07:56:06.300Z,68.86
2022-08-26T07:57:09.391Z,68.22
2022-08-26T07:58:13.091Z,68.28
2022-08-26T07:59:15.799Z,68.69
2022-08-26T08:00:19.002Z,68.91
2022-08-26T08:01:23.471Z,68.48
2022-08-26T08:02:31.343Z,68.34
2022-08-26T08:03:35.529Z,68.55
2022-08-26T08:04:40.274Z,68.21
2022-08-26T08:05:56.785Z,68.62
2022-08-26T08:07:02.773Z,68.75
2022-08-26T08:08:26.621Z,68.08
2022-08-26T08:09:31.760Z,68.05
2022-08-26T08:10:39.525Z,68.17
2022-08-26T08:11:45.623Z,68.48
2022-08-26T08:12:53.897Z,67.91
2022-08-26T08:13:56.847Z,68.44
2022-08-26T08:14:59.698Z,67.91
2022-08-26T08:16:02.310Z,68.00
2022-08-26T08:17:05.472Z,68.60
2022-08-26T08:18:15.336Z,68.41
2022-08-26T08:19:18.546Z,68.04
2022-08-26T08:20:22.043Z,68.21
2022-08-26T08:21:26.342Z,68.49
2022-08-26T08:22:32.456Z,68.34
2022-08-26T08:23:35.383Z,68.37
2022-08-26T08:24:38.890Z,68.34
2022-08-26T08:25:43.776Z,68.17
2022-08-26T08:26:47.100Z,67.90
2022-08-26T08:27:48.801Z,68.06
2022-08-26T08:28:55.120Z,68.10
2022-08-26T08:29:57.167Z,68.07
2022-08-26T08:31:00.287Z,67.95
2022-08-26T08:32:03.526Z,67.74
2022-08-26T08:33:06.733Z,67.84
2022-08-26T08:34:09.591Z,67.93
2022-08-26T08:35:14.343Z,68.10
2022-08-26T08:36:18.627Z,67.39
2022-08-26T08:37:23.346Z,67.28
2022-08-26T08:38:27.400Z,67.62
2022-08-26T08:39:33.357Z,67.67
2022-08-26T08:40:40.440Z,67.50
2022-08-26T08:41:54.580Z,67.45
2022-08-26T08:43:03.531Z,67.26
2022-08-26T08:44:11.116Z,67.32
2022-08-26T08:45:17.690Z,67.54
2022-08-26T08:46:21.478Z,67.20
2022-08-26T08:47:29.476Z,67.39
2022-08-26T08:48:35.872Z,67.22
2022-08-26T08:49:38.013Z,67.45
2022-08-26T08:50:45.720Z,67.56
2022-08-26T08:51:52.009Z,67.03
2022-08-26T08:53:03.946Z,67.22
2022-08-26T08:54:13.459Z,66.69
2022-08-26T08:55:18.209Z,66.69
2022-08-26T08:56:29.109Z,66.89
2022-08-26T08:57:46.646Z,67.08
2022-08-26T08:58:56.786Z,67.03
2022-08-26T09:00:04.753Z,67.07
2022-08-26T09:01:18.418Z,66.89
2022-08-26T09:02:28.849Z,67.14
2022-08-26T09:03:45.520Z,66.94
2022-08-26T09:04:58.507Z,66.80
2022-08-26T09:06:01.653Z,66.67
2022-08-26T09:07:09.929Z,66.84
2022-08-26T09:08:19.924Z,66.47
2022-08-26T09:09:30.143Z,66.20
2022-08-26T09:10:38.093Z,66.19
2022-08-26T09:11:39.742Z,66.06
2022-08-26T09:12:44.244Z,66.11
2022-08-26T09:13:51.466Z,65.63
2022-08-26T09:14:57.700Z,65.33
2022-08-26T09:16:08.224Z,65.17
2022-08-26T09:17:22.529Z,65.05
2022-08-26T09:18:46.059Z,64.95
2022-08-26T09:19:52.315Z,64.63
2022-08-26T09:20:58.269Z,64.88
2022-08-26T09:22:06.994Z,64.71
2022-08-26T09:23:11.348Z,64.76
2022-08-26T09:24:14.169Z,64.53
2022-08-26T09:25:18.630Z,64.37
2022-08-26T09:26:29.090Z,63.84
2022-08-26T09:27:41.531Z,64.31
2022-08-26T09:28:49.042Z,64.36
2022-08-26T09:29:51.512Z,64.63
2022-08-26T09:31:11.493Z,64.17
2022-08-26T09:32:19.478Z,64.32
2022-08-26T09:33:29.142Z,64.26
2022-08-26T09:34:32.947Z,64.04
2022-08-26T09:35:37.659Z,64.06
2022-08-26T09:36:43.669Z,63.98
2022-08-26T09:38:55.290Z,64.30
2022-08-26T09:40:13.327Z,63.82
2022-08-26T09:41:27.965Z,63.82
2022-08-26T09:42:29.556Z,64.15
2022-08-26T09:43:32.740Z,63.61
2022-08-26T09:44:35.518Z,63.72
2022-08-26T09:45:39.783Z,63.92
2022-08-26T09:46:46.482Z,63.71
2022-08-26T09:47:55.191Z,63.38
2022-08-26T09:48:57.992Z,63.54
2022-08-26T09:50:09.923Z,63.45
2022-08-26T09:51:33.124Z,63.12
2022-08-26T09:52:34.915Z,63.23
2022-08-26T09:53:52.028Z,63.55
2022-08-26T09:55:16.996Z,63.65
2022-08-26T09:56:27.909Z,63.00
2022-08-26T09:57:33.193Z,63.02
2022-08-26T09:58:40.021Z,63.00
2022-08-26T09:59:43.879Z,63.54
2022-08-26T10:00:55.989Z,62.94
2022-08-26T10:02:18.324Z,62.98
2022-08-26T10:03:28.439Z,63.45
2022-08-26T10:04:33.656Z,63.54
2022-08-26T10:05:43.611Z,63.47
2022-08-26T10:06:57.712Z,62.91
2022-08-26T10:08:00.811Z,63.70
2022-08-26T10:09:08.343Z,63.45
2022-08-26T10:10:18.197Z,63.23
2022-08-26T10:11:27.955Z,62.52
2022-08-26T10:12:34.624Z,62.62
2022-08-26T10:13:43.705Z,62.59
2022-08-26T10:14:49.691Z,62.85
2022-08-26T10:15:59.031Z,62.83
2022-08-26T10:17:05.308Z,62.71
2022-08-26T10:18:16.090Z,62.12
2022-08-26T10:19:22.449Z,62.51
2022-08-26T10:20:28.133Z,62.55
2022-08-26T10:21:36.273Z,62.14
2022-08-26T10:22:44.049Z,62.06
2022-08-26T10:23:50.349Z,61.92
2022-08-26T10:24:55.840Z,61.79
2022-08-26T10:26:05.244Z,61.91
2022-08-26T10:27:28.607Z,62.17
2022-08-26T10:28:39.863Z,61.80
2022-08-26T10:29:46.634Z,62.45
2022-08-26T10:30:56.401Z,62.50
2022-08-26T10:32:03.491Z,62.47
2022-08-26T10:33:08.779Z,62.44
2022-08-26T10:34:14.158Z,62.32
2022-08-26T10:35:19.131Z,62.39
2022-08-26T10:36:58.640Z,61.99
2022-08-26T10:38:11.797Z,61.87
2022-08-26T10:39:23.727Z,62.08
2022-08-26T10:40:27.366Z,62.05
2022-08-26T10:41:33.698Z,62.24
2022-08-26T10:42:41.507Z,61.91
2022-08-26T10:43:53.423Z,62.24
2022-08-26T10:45:02.497Z,62.06
2022-08-26T10:46:09.230Z,61.73
2022-08-26T10:47:16.570Z,61.61
2022-08-26T10:48:25.806Z,61.69
2022-08-26T10:49:40.658Z,61.32
2022-08-26T10:50:44.679Z,60.87
2022-08-26T10:51:57.771Z,61.21
2022-08-26T10:53:05.843Z,60.39
2022-08-26T10:54:17.020Z,60.19
2022-08-26T10:55:29.879Z,60.49
2022-08-26T10:56:46.386Z,60.17
2022-08-26T10:57:57.054Z,60.40
2022-08-26T10:59:12.251Z,60.49
2022-08-26T11:00:36.702Z,60.40
2022-08-26T11:01:51.029Z,60.43
2022-08-26T11:03:01.013Z,60.45
2022-08-26T11:04:10.407Z,60.27
2022-08-26T11:05:19.614Z,60.00
2022-08-26T11:06:23.060Z,59.95
2022-08-26T11:07:43.854Z,60.08
2022-08-26T11:08:47.512Z,60.40
2022-08-26T11:09:50.127Z,59.82
2022-08-26T11:10:58.922Z,60.37
2022-08-26T11:12:09.991Z,60.16
2022-08-26T11:13:13.056Z,60.61
2022-08-26T11:16:10.038Z,60.14
2022-08-26T11:17:12.692Z,59.85
2022-08-26T11:18:37.032Z,59.84
2022-08-26T11:20:01.701Z,60.30
2022-08-26T11:21:47.796Z,60.16
2022-08-26T11:22:55.100Z,59.86
2022-08-26T11:23:56.886Z,60.07
2022-08-26T11:25:11.608Z,59.78
2022-08-26T11:26:18.876Z,59.86
2022-08-26T11:28:05.522Z,59.96
2022-08-26T11:29:13.418Z,60.48
2022-08-26T11:30:36.867Z,60.34
2022-08-26T11:31:57.652Z,59.94
2022-08-26T11:32:59.815Z,60.36
2022-08-26T11:34:03.943Z,59.89
2022-08-26T11:35:08.325Z,59.95
2022-08-26T11:36:12.652Z,60.48
2022-08-26T11:38:29.305Z,60.42
2022-08-26T11:39:36.675Z,60.35
2022-08-26T11:40:41.572Z,60.54
2022-08-26T11:41:45.404Z,60.06
2022-08-26T11:42:51.647Z,60.13
2022-08-26T11:43:54.135Z,60.67
2022-08-26T11:44:59.325Z,60.37
2022-08-26T11:46:06.187Z,60.24
2022-08-26T11:47:15.455Z,61.11
2022-08-26T11:48:20.972Z,60.89
2022-08-26T11:49:24.908Z,60.35
2022-08-26T11:50:29.747Z,61.01
2022-08-26T11:51:35.897Z,60.15
2022-08-26T11:52:40.909Z,60.62
2022-08-26T11:53:47.198Z,59.87
2022-08-26T11:55:03.117Z,60.50
2022-08-26T11:56:10.080Z,59.86
2022-08-26T11:57:13.654Z,59.96
2022-08-26T11:58:16.940Z,59.78
2022-08-26T11:59:25.107Z,59.77
2022-08-26T12:00:33.433Z,60.27
2022-08-26T12:01:40.728Z,59.85
2022-08-26T12:02:45.233Z,59.55
2022-08-26T12:03:50.038Z,59.75
2022-08-26T12:04:55.460Z,59.93
2022-08-26T12:05:58.740Z,59.52
2022-08-26T12:07:02.441Z,60.02
2022-08-26T12:08:09.851Z,59.23
2022-08-26T12:09:21.706Z,60.00
2022-08-26T12:10:30.077Z,59.62
2022-08-26T12:11:35.456Z,59.40
2022-08-26T12:12:38.681Z,59.32
2022-08-26T12:13:42.603Z,59.74
2022-08-26T12:14:45.078Z,59.16
2022-08-26T12:15:55.946Z,59.17
2022-08-26T12:17:09.846Z,59.36
2022-08-26T12:18:29.713Z,59.84
2022-08-26T12:19:34.630Z,59.61
2022-08-26T12:20:53.729Z,59.27
2022-08-26T12:22:01.917Z,59.32
2022-08-26T12:23:04.914Z,59.95
2022-08-26T12:24:09.911Z,59.73
2022-08-26T12:25:12.653Z,59.32
2022-08-26T12:26:23.306Z,59.87
2022-08-26T12:27:27.336Z,59.94
2022-08-26T12:28:32.113Z,59.87
2022-08-26T12:29:35.099Z,59.41
2022-08-26T12:30:37.050Z,59.21
2022-08-26T12:31:42.415Z,59.09
2022-08-26T12:32:56.548Z,59.05
2022-08-26T12:34:04.026Z,58.76
2022-08-26T12:35:10.830Z,58.99
2022-08-26T12:36:13.562Z,58.17
2022-08-26T12:37:16.628Z,58.01
2022-08-26T12:38:21.342Z,58.60
2022-08-26T12:39:30.173Z,58.03
2022-08-26T12:40:36.347Z,58.53
2022-08-26T12:41:41.495Z,58.18
2022-08-26T12:42:44.352Z,58.61
2022-08-26T12:43:46.139Z,57.97
2022-08-26T12:44:54.089Z,58.50
2022-08-26T12:45:59.734Z,58.32
2022-08-26T12:47:09.143Z,58.75
2022-08-26T12:48:14.385Z,58.38
2022-08-26T12:49:18.958Z,58.41
2022-08-26T12:50:24.684Z,58.37
2022-08-26T12:51:29.157Z,58.60
2022-08-26T12:52:35.514Z,58.69
2022-08-26T12:53:43.017Z,58.29
2022-08-26T12:55:02.637Z,58.18
2022-08-26T12:56:20.609Z,58.34
2022-08-26T12:57:27.547Z,58.21
2022-08-26T12:58:32.792Z,59.10
2022-08-26T12:59:34.413Z,58.71
2022-08-26T13:00:40.582Z,59.02
2022-08-26T13:01:45.608Z,59.22
2022-08-26T13:02:47.369Z,59.06
2022-08-26T13:03:51.746Z,59.59
2022-08-26T13:05:00.776Z,59.24
2022-08-26T13:06:25.727Z,60.08
2022-08-26T13:07:27.565Z,59.91
2022-08-26T13:08:31.260Z,60.48
2022-08-26T13:09:32.880Z,60.57
2022-08-26T13:10:36.628Z,61.42
2022-08-26T13:12:00.363Z,60.89
2022-08-26T13:13:04.021Z,61.33
2022-08-26T13:14:08.656Z,61.26
2022-08-26T13:15:10.467Z,61.91
2022-08-26T13:16:14.010Z,61.84
2022-08-26T13:17:16.887Z,61.90
2022-08-26T13:18:19.514Z,61.48
2022-08-26T13:19:25.333Z,62.26
2022-08-26T13:20:29.362Z,62.21
2022-08-26T13:21:37.725Z,62.52
2022-08-26T13:22:42.589Z,61.97
2022-08-26T13:23:45.548Z,62.14
2022-08-26T13:24:47.228Z,62.01
2022-08-26T13:25:50.053Z,62.13
2022-08-26T13:26:52.949Z,62.50
2022-08-26T13:27:55.199Z,62.65
2022-08-26T13:29:02.228Z,62.87
2022-08-26T13:30:05.731Z,62.87
2022-08-26T13:31:11.216Z,62.05
2022-08-26T13:32:14.906Z,62.72
2022-08-26T13:33:19.344Z,62.59
2022-08-26T13:34:24.332Z,62.05
2022-08-26T13:35:27.736Z,62.23
2022-08-26T13:36:32.014Z,62.44
2022-08-26T13:37:35.285Z,62.44
2022-08-26T13:38:38.403Z,62.62
2022-08-26T13:39:41.815Z,62.73
2022-08-26T13:40:44.764Z,62.81
2022-08-26T13:41:47.700Z,63.05
2022-08-26T13:42:50.316Z,63.23
2022-08-26T13:43:52.914Z,63.30
2022-08-26T13:44:57.880Z,62.93
2022-08-26T13:46:01.685Z,63.74
2022-08-26T13:47:03.397Z,63.71
2022-08-26T13:48:07.743Z,63.51
2022-08-26T13:49:09.958Z,63.69
2022-08-26T13:50:12.599Z,63.94
2022-08-26T13:51:14.404Z,63.42
2022-08-26T13:52:18.574Z,64.00
2022-08-26T13:53:33.169Z,64.04
2022-08-26T13:54:34.758Z,63.58
2022-08-26T13:55:37.392Z,64.12
2022-08-26T13:56:39.032Z,64.19
2022-08-26T13:57:41.643Z,64.37
2022-08-26T13:58:43.315Z,63.79
2022-08-26T13:59:48.694Z,64.13
2022-08-26T14:00:50.340Z,64.37
2022-08-26T14:01:52.982Z,64.00
2022-08-26T14:02:56.020Z,63.58
2022-08-26T14:03:59.585Z,63.89
2022-08-26T14:05:02.602Z,63.91
2022-08-26T14:06:05.481Z,64.20
2022-08-26T14:07:08.281Z,64.32
2022-08-26T14:08:11.670Z,63.93
2022-08-26T14:09:14.260Z,63.66
2022-08-26T14:10:15.912Z,64.09
2022-08-26T14:11:19.375Z,63.76
2022-08-26T14:12:21.256Z,63.85